sensor_id;sensor_type;location;lat;lon;timestamp;pressure;altitude;pressure_sealevel;temperature;humidity
39075;BME280;24826;52.070;20.970;2023-05-16T00:01:35;62160.31;;;-147.04;57.72
39075;BME280;24826;52.070;20.970;2023-05-16T00:04:21;62148.38;;;-147.04;57.70
39075;BME280;24826;52.070;20.970;2023-05-16T00:07:06;62132.47;;;-147.04;57.56
39075;BME280;24826;52.070;20.970;2023-05-16T00:09:51;62231.91;;;-147.04;56.74
39075;BME280;24826;52.070;20.970;2023-05-16T00:12:35;62128.47;;;-147.04;57.23
39075;BME280;24826;52.070;20.970;2023-05-16T00:15:20;62168.25;;;-147.04;57.40
39075;BME280;24826;52.070;20.970;2023-05-16T00:18:06;62166.25;;;-147.04;57.43
39075;BME280;24826;52.070;20.970;2023-05-16T00:20:50;62184.16;;;-147.04;57.69
39075;BME280;24826;52.070;20.970;2023-05-16T00:23:36;62158.31;;;-147.04;57.43
39075;BME280;24826;52.070;20.970;2023-05-16T00:26:20;62136.44;;;-147.04;57.35
39075;BME280;24826;52.070;20.970;2023-05-16T00:29:05;62188.13;;;-147.04;57.41
39075;BME280;24826;52.070;20.970;2023-05-16T00:31:50;62150.34;;;-147.04;57.16
39075;BME280;24826;52.070;20.970;2023-05-16T00:34:34;62172.22;;;-147.04;57.38
39075;BME280;24826;52.070;20.970;2023-05-16T00:37:19;62138.41;;;-147.04;57.50
39075;BME280;24826;52.070;20.970;2023-05-16T00:40:04;62182.19;;;-147.04;57.46
39075;BME280;24826;52.070;20.970;2023-05-16T00:42:49;62152.34;;;-147.04;57.38
39075;BME280;24826;52.070;20.970;2023-05-16T00:45:34;62162.28;;;-147.04;57.26
39075;BME280;24826;52.070;20.970;2023-05-16T00:48:18;62176.22;;;-147.04;57.37
39075;BME280;24826;52.070;20.970;2023-05-16T00:51:03;62184.16;;;-147.04;57.50
39075;BME280;24826;52.070;20.970;2023-05-16T00:53:53;62192.13;;;-147.04;57.51
39075;BME280;24826;52.070;20.970;2023-05-16T00:56:38;62166.25;;;-147.04;57.57
39075;BME280;24826;52.070;20.970;2023-05-16T00:59:23;62164.28;;;-147.04;57.62
39075;BME280;24826;52.070;20.970;2023-05-16T01:02:08;62176.22;;;-147.04;57.53
39075;BME280;24826;52.070;20.970;2023-05-16T01:04:53;62158.31;;;-147.04;56.98
39075;BME280;24826;52.070;20.970;2023-05-16T01:07:38;62146.38;;;-147.04;57.03
39075;BME280;24826;52.070;20.970;2023-05-16T01:10:23;62128.47;;;-147.04;57.20
39075;BME280;24826;52.070;20.970;2023-05-16T01:13:17;62148.38;;;-147.04;57.17
39075;BME280;24826;52.070;20.970;2023-05-16T01:25:01;62154.34;;;-147.04;56.67
39075;BME280;24826;52.070;20.970;2023-05-16T01:27:48;62152.34;;;-147.04;56.87
39075;BME280;24826;52.070;20.970;2023-05-16T01:30:38;62184.16;;;-147.04;57.21
39075;BME280;24826;52.070;20.970;2023-05-16T01:33:22;62164.28;;;-147.04;56.95
39075;BME280;24826;52.070;20.970;2023-05-16T01:36:28;62146.38;;;-147.04;56.99
39075;BME280;24826;52.070;20.970;2023-05-16T01:39:46;62180.19;;;-147.04;56.87
39075;BME280;24826;52.070;20.970;2023-05-16T01:42:38;62134.44;;;-147.04;56.94
39075;BME280;24826;52.070;20.970;2023-05-16T01:45:28;62176.22;;;-147.04;56.88
39075;BME280;24826;52.070;20.970;2023-05-16T01:48:21;62184.16;;;-147.04;56.86
39075;BME280;24826;52.070;20.970;2023-05-16T01:51:07;62160.31;;;-147.04;56.94
39075;BME280;24826;52.070;20.970;2023-05-16T01:53:58;62176.22;;;-147.04;56.67
39075;BME280;24826;52.070;20.970;2023-05-16T01:56:51;62162.28;;;-147.04;56.41
39075;BME280;24826;52.070;20.970;2023-05-16T01:59:37;62164.28;;;-147.04;55.94
39075;BME280;24826;52.070;20.970;2023-05-16T02:02:21;62136.44;;;-147.04;55.98
39075;BME280;24826;52.070;20.970;2023-05-16T02:05:07;62156.31;;;-147.04;55.93
39075;BME280;24826;52.070;20.970;2023-05-16T02:07:51;62174.22;;;-147.04;55.96
39075;BME280;24826;52.070;20.970;2023-05-16T02:10:36;62146.38;;;-147.04;55.91
39075;BME280;24826;52.070;20.970;2023-05-16T02:13:20;62148.38;;;-147.04;55.94
39075;BME280;24826;52.070;20.970;2023-05-16T02:16:04;62146.38;;;-147.04;55.75
39075;BME280;24826;52.070;20.970;2023-05-16T02:18:48;62192.13;;;-147.04;55.73
39075;BME280;24826;52.070;20.970;2023-05-16T02:21:33;62126.50;;;-147.04;55.73
39075;BME280;24826;52.070;20.970;2023-05-16T02:24:17;62134.44;;;-147.04;55.72
39075;BME280;24826;52.070;20.970;2023-05-16T02:27:02;62162.28;;;-147.04;55.73
39075;BME280;24826;52.070;20.970;2023-05-16T02:29:46;62142.41;;;-147.04;55.82
39075;BME280;24826;52.070;20.970;2023-05-16T02:32:31;62148.38;;;-147.04;55.66
39075;BME280;24826;52.070;20.970;2023-05-16T02:35:16;62164.28;;;-147.04;55.70
39075;BME280;24826;52.070;20.970;2023-05-16T02:38:01;62132.47;;;-147.04;55.66
39075;BME280;24826;52.070;20.970;2023-05-16T02:40:48;62142.41;;;-147.04;55.71
39075;BME280;24826;52.070;20.970;2023-05-16T02:43:33;62132.47;;;-147.04;55.52
39075;BME280;24826;52.070;20.970;2023-05-16T02:46:32;62148.38;;;-147.04;55.39
39075;BME280;24826;52.070;20.970;2023-05-16T02:49:17;62142.41;;;-147.04;55.38
39075;BME280;24826;52.070;20.970;2023-05-16T02:52:02;62164.28;;;-147.04;54.99
39075;BME280;24826;52.070;20.970;2023-05-16T02:54:47;62138.41;;;-147.04;54.81
39075;BME280;24826;52.070;20.970;2023-05-16T02:57:31;62140.41;;;-147.04;54.79
39075;BME280;24826;52.070;20.970;2023-05-16T03:00:15;62148.38;;;-147.04;54.76
39075;BME280;24826;52.070;20.970;2023-05-16T03:03:00;62146.38;;;-147.04;54.72
39075;BME280;24826;52.070;20.970;2023-05-16T03:05:44;62176.22;;;-147.04;54.66
39075;BME280;24826;52.070;20.970;2023-05-16T03:08:29;62144.38;;;-147.04;54.74
39075;BME280;24826;52.070;20.970;2023-05-16T03:11:14;62124.50;;;-147.04;54.48
39075;BME280;24826;52.070;20.970;2023-05-16T03:13:59;62122.50;;;-147.04;54.48
39075;BME280;24826;52.070;20.970;2023-05-16T03:16:44;62148.38;;;-147.04;54.40
39075;BME280;24826;52.070;20.970;2023-05-16T03:19:28;62138.41;;;-147.04;54.53
39075;BME280;24826;52.070;20.970;2023-05-16T03:22:12;62140.41;;;-147.04;54.57
39075;BME280;24826;52.070;20.970;2023-05-16T03:24:56;62174.22;;;-147.04;54.53
39075;BME280;24826;52.070;20.970;2023-05-16T03:27:41;62132.47;;;-147.04;54.52
39075;BME280;24826;52.070;20.970;2023-05-16T03:30:25;62152.34;;;-147.04;54.42
39075;BME280;24826;52.070;20.970;2023-05-16T03:33:10;62154.34;;;-147.04;54.34
39075;BME280;24826;52.070;20.970;2023-05-16T03:35:54;62142.41;;;-147.04;54.27
39075;BME280;24826;52.070;20.970;2023-05-16T03:38:39;62148.38;;;-147.04;54.10
39075;BME280;24826;52.070;20.970;2023-05-16T03:41:24;62132.47;;;-147.04;54.11
39075;BME280;24826;52.070;20.970;2023-05-16T03:44:09;62144.38;;;-147.04;54.03
39075;BME280;24826;52.070;20.970;2023-05-16T03:46:54;62156.31;;;-147.04;53.99
39075;BME280;24826;52.070;20.970;2023-05-16T03:49:39;62126.50;;;-147.04;53.81
39075;BME280;24826;52.070;20.970;2023-05-16T03:52:24;62146.38;;;-147.04;53.70
39075;BME280;24826;52.070;20.970;2023-05-16T03:55:08;62146.38;;;-147.04;53.68
39075;BME280;24826;52.070;20.970;2023-05-16T03:57:53;62176.22;;;-147.04;53.62
39075;BME280;24826;52.070;20.970;2023-05-16T04:00:37;62164.28;;;-147.04;53.54
39075;BME280;24826;52.070;20.970;2023-05-16T04:03:22;62120.53;;;-147.04;53.51
39075;BME280;24826;52.070;20.970;2023-05-16T04:06:11;62138.41;;;-147.04;53.51
39075;BME280;24826;52.070;20.970;2023-05-16T04:08:55;62128.47;;;-147.04;53.40
39075;BME280;24826;52.070;20.970;2023-05-16T04:11:40;62134.44;;;-147.04;53.38
39075;BME280;24826;52.070;20.970;2023-05-16T04:14:24;62168.25;;;-147.04;53.14
39075;BME280;24826;52.070;20.970;2023-05-16T04:17:09;62152.34;;;-147.04;53.53
39075;BME280;24826;52.070;20.970;2023-05-16T04:19:53;62162.28;;;-147.04;53.27
39075;BME280;24826;52.070;20.970;2023-05-16T04:22:38;62140.41;;;-147.04;53.62
39075;BME280;24826;52.070;20.970;2023-05-16T04:25:23;62154.34;;;-147.04;53.66
39075;BME280;24826;52.070;20.970;2023-05-16T04:28:07;62144.38;;;-147.04;54.37
39075;BME280;24826;52.070;20.970;2023-05-16T04:30:51;62160.31;;;-147.04;54.78
39075;BME280;24826;52.070;20.970;2023-05-16T04:33:37;62136.44;;;-147.04;55.26
39075;BME280;24826;52.070;20.970;2023-05-16T04:36:21;62128.47;;;-147.04;54.32
39075;BME280;24826;52.070;20.970;2023-05-16T04:39:07;62140.41;;;-147.04;53.74
39075;BME280;24826;52.070;20.970;2023-05-16T04:41:51;62156.31;;;-147.04;53.79
39075;BME280;24826;52.070;20.970;2023-05-16T04:44:36;62144.38;;;-147.04;54.04
39075;BME280;24826;52.070;20.970;2023-05-16T04:47:20;62146.38;;;-147.04;54.45
39075;BME280;24826;52.070;20.970;2023-05-16T04:50:05;62148.38;;;-147.04;54.46
39075;BME280;24826;52.070;20.970;2023-05-16T04:52:52;62140.41;;;-147.04;54.84
39075;BME280;24826;52.070;20.970;2023-05-16T04:55:36;62178.19;;;-147.04;54.71
39075;BME280;24826;52.070;20.970;2023-05-16T04:58:20;62120.53;;;-147.04;55.03
39075;BME280;24826;52.070;20.970;2023-05-16T05:01:07;62164.28;;;-147.04;54.91
39075;BME280;24826;52.070;20.970;2023-05-16T05:03:51;62144.38;;;-147.04;54.98
39075;BME280;24826;52.070;20.970;2023-05-16T05:06:36;62162.28;;;-147.04;54.48
39075;BME280;24826;52.070;20.970;2023-05-16T05:09:21;62162.28;;;-147.04;54.37
39075;BME280;24826;52.070;20.970;2023-05-16T05:12:06;62142.41;;;-147.04;54.52
39075;BME280;24826;52.070;20.970;2023-05-16T05:14:50;62158.31;;;-147.04;53.86
39075;BME280;24826;52.070;20.970;2023-05-16T05:17:34;62144.38;;;-147.04;54.28
39075;BME280;24826;52.070;20.970;2023-05-16T05:20:20;62146.38;;;-147.04;54.24
39075;BME280;24826;52.070;20.970;2023-05-16T05:23:05;62184.16;;;-147.04;53.98
39075;BME280;24826;52.070;20.970;2023-05-16T05:25:49;62124.50;;;-147.04;54.06
39075;BME280;24826;52.070;20.970;2023-05-16T05:28:34;62156.31;;;-147.04;53.82
39075;BME280;24826;52.070;20.970;2023-05-16T05:31:18;62170.25;;;-147.04;53.92
39075;BME280;24826;52.070;20.970;2023-05-16T05:34:03;62132.47;;;-147.04;53.99
39075;BME280;24826;52.070;20.970;2023-05-16T05:36:47;62140.41;;;-147.04;53.89
39075;BME280;24826;52.070;20.970;2023-05-16T05:39:32;62212.00;;;-147.04;54.33
39075;BME280;24826;52.070;20.970;2023-05-16T05:42:16;62194.09;;;-147.04;54.11
39075;BME280;24826;52.070;20.970;2023-05-16T05:45:01;62178.19;;;-147.04;53.96
39075;BME280;24826;52.070;20.970;2023-05-16T05:47:45;62323.38;;;-147.04;54.07
39075;BME280;24826;52.070;20.970;2023-05-16T05:50:29;62176.22;;;-147.04;54.01
39075;BME280;24826;52.070;20.970;2023-05-16T05:53:14;62148.38;;;-147.04;53.85
39075;BME280;24826;52.070;20.970;2023-05-16T05:55:58;62154.34;;;-147.04;53.68
39075;BME280;24826;52.070;20.970;2023-05-16T05:58:43;62144.38;;;-147.04;53.79
39075;BME280;24826;52.070;20.970;2023-05-16T06:01:27;62176.22;;;-147.04;53.97
39075;BME280;24826;52.070;20.970;2023-05-16T06:04:11;62148.38;;;-147.04;53.93
39075;BME280;24826;52.070;20.970;2023-05-16T06:06:56;62152.34;;;-147.04;54.16
39075;BME280;24826;52.070;20.970;2023-05-16T06:09:41;62176.22;;;-147.04;53.72
39075;BME280;24826;52.070;20.970;2023-05-16T06:12:26;62188.13;;;-147.04;53.89
39075;BME280;24826;52.070;20.970;2023-05-16T06:15:10;62168.25;;;-147.04;53.64
39075;BME280;24826;52.070;20.970;2023-05-16T06:17:55;62176.22;;;-147.04;53.96
39075;BME280;24826;52.070;20.970;2023-05-16T06:20:39;62144.38;;;-147.04;54.33
39075;BME280;24826;52.070;20.970;2023-05-16T06:23:23;62192.13;;;-147.04;54.27
39075;BME280;24826;52.070;20.970;2023-05-16T06:26:07;62184.16;;;-147.04;54.32
39075;BME280;24826;52.070;20.970;2023-05-16T06:28:52;62136.44;;;-147.04;54.13
39075;BME280;24826;52.070;20.970;2023-05-16T06:31:37;62168.25;;;-147.04;54.27
39075;BME280;24826;52.070;20.970;2023-05-16T06:34:21;62190.13;;;-147.04;54.64
39075;BME280;24826;52.070;20.970;2023-05-16T06:37:11;62156.31;;;-147.04;54.21
39075;BME280;24826;52.070;20.970;2023-05-16T06:39:55;62200.06;;;-147.04;54.49
39075;BME280;24826;52.070;20.970;2023-05-16T06:42:39;62172.22;;;-147.04;54.19
39075;BME280;24826;52.070;20.970;2023-05-16T06:45:24;62180.19;;;-147.04;54.48
39075;BME280;24826;52.070;20.970;2023-05-16T06:48:08;62172.22;;;-147.04;54.37
39075;BME280;24826;52.070;20.970;2023-05-16T06:50:52;62208.03;;;-147.04;54.04
39075;BME280;24826;52.070;20.970;2023-05-16T06:53:37;62217.97;;;-147.04;54.42
39075;BME280;24826;52.070;20.970;2023-05-16T06:56:21;62132.47;;;-147.04;54.26
39075;BME280;24826;52.070;20.970;2023-05-16T06:59:05;62170.25;;;-147.04;54.22
39075;BME280;24826;52.070;20.970;2023-05-16T07:01:49;62156.31;;;-147.04;54.47
39075;BME280;24826;52.070;20.970;2023-05-16T07:04:34;62188.13;;;-147.04;54.45
39075;BME280;24826;52.070;20.970;2023-05-16T07:07:20;62144.38;;;-147.04;54.32
39075;BME280;24826;52.070;20.970;2023-05-16T07:10:05;62160.31;;;-147.04;53.69
39075;BME280;24826;52.070;20.970;2023-05-16T07:12:50;62124.50;;;-147.04;53.98
39075;BME280;24826;52.070;20.970;2023-05-16T07:15:34;62168.25;;;-147.04;54.43
39075;BME280;24826;52.070;20.970;2023-05-16T07:18:19;62140.41;;;-147.04;54.24
39075;BME280;24826;52.070;20.970;2023-05-16T07:21:03;62148.38;;;-147.04;54.74
39075;BME280;24826;52.070;20.970;2023-05-16T07:23:48;62208.03;;;-147.04;55.00
39075;BME280;24826;52.070;20.970;2023-05-16T07:26:32;62176.22;;;-147.04;54.61
39075;BME280;24826;52.070;20.970;2023-05-16T07:29:16;62180.19;;;-147.04;54.69
39075;BME280;24826;52.070;20.970;2023-05-16T07:32:01;62174.22;;;-147.04;55.04
39075;BME280;24826;52.070;20.970;2023-05-16T07:34:46;62168.25;;;-147.04;54.59
39075;BME280;24826;52.070;20.970;2023-05-16T07:37:30;62162.28;;;-147.04;54.66
39075;BME280;24826;52.070;20.970;2023-05-16T07:40:15;62212.00;;;-147.04;54.27
39075;BME280;24826;52.070;20.970;2023-05-16T07:43:00;62180.19;;;-147.04;54.31
39075;BME280;24826;52.070;20.970;2023-05-16T07:45:45;62212.00;;;-147.04;54.26
39075;BME280;24826;52.070;20.970;2023-05-16T07:48:29;62148.38;;;-147.04;54.19
39075;BME280;24826;52.070;20.970;2023-05-16T07:51:14;62160.31;;;-147.04;54.08
39075;BME280;24826;52.070;20.970;2023-05-16T07:53:58;62192.13;;;-147.04;54.03
39075;BME280;24826;52.070;20.970;2023-05-16T07:56:43;62168.25;;;-147.04;53.44
39075;BME280;24826;52.070;20.970;2023-05-16T07:59:27;62192.13;;;-147.04;53.21
39075;BME280;24826;52.070;20.970;2023-05-16T08:02:12;62184.16;;;-147.04;53.36
39075;BME280;24826;52.070;20.970;2023-05-16T08:04:57;62198.09;;;-147.04;53.32
39075;BME280;24826;52.070;20.970;2023-05-16T08:07:42;62275.66;;;-147.04;53.19
39075;BME280;24826;52.070;20.970;2023-05-16T08:10:26;62184.16;;;-147.04;53.18
39075;BME280;24826;52.070;20.970;2023-05-16T08:13:11;62194.09;;;-147.04;52.97
39075;BME280;24826;52.070;20.970;2023-05-16T08:15:55;62164.28;;;-147.04;53.03
39075;BME280;24826;52.070;20.970;2023-05-16T08:18:40;62146.38;;;-147.04;52.80
39075;BME280;24826;52.070;20.970;2023-05-16T08:21:25;62182.19;;;-147.04;52.92
39075;BME280;24826;52.070;20.970;2023-05-16T08:24:09;62176.22;;;-147.04;52.12
39075;BME280;24826;52.070;20.970;2023-05-16T08:26:55;62164.28;;;-147.04;52.54
39075;BME280;24826;52.070;20.970;2023-05-16T08:29:39;62156.31;;;-147.04;52.41
39075;BME280;24826;52.070;20.970;2023-05-16T08:32:23;62176.22;;;-147.04;51.61
39075;BME280;24826;52.070;20.970;2023-05-16T08:35:08;62152.34;;;-147.04;51.85
39075;BME280;24826;52.070;20.970;2023-05-16T08:37:53;62156.31;;;-147.04;51.75
39075;BME280;24826;52.070;20.970;2023-05-16T08:40:39;62156.31;;;-147.04;51.59
39075;BME280;24826;52.070;20.970;2023-05-16T08:43:23;62146.38;;;-147.04;51.22
39075;BME280;24826;52.070;20.970;2023-05-16T08:46:08;62140.41;;;-147.04;50.80
39075;BME280;24826;52.070;20.970;2023-05-16T08:48:52;62152.34;;;-147.04;50.17
39075;BME280;24826;52.070;20.970;2023-05-16T08:51:37;62104.63;;;-147.04;49.86
39075;BME280;24826;52.070;20.970;2023-05-16T08:54:23;62025.06;;;-147.04;49.49
39075;BME280;24826;52.070;20.970;2023-05-16T08:57:08;62092.69;;;-147.04;49.48
39075;BME280;24826;52.070;20.970;2023-05-16T08:59:53;62078.75;;;-147.04;49.63
39075;BME280;24826;52.070;20.970;2023-05-16T09:02:41;62068.81;;;-147.04;49.99
39075;BME280;24826;52.070;20.970;2023-05-16T09:05:28;62052.91;;;-147.04;50.10
39075;BME280;24826;52.070;20.970;2023-05-16T09:08:13;62086.72;;;-147.04;50.47
39075;BME280;24826;52.070;20.970;2023-05-16T09:10:57;62104.63;;;-147.04;50.19
39075;BME280;24826;52.070;20.970;2023-05-16T09:13:42;62100.63;;;-147.04;50.38
39075;BME280;24826;52.070;20.970;2023-05-16T09:16:26;62144.38;;;-147.04;50.13
39075;BME280;24826;52.070;20.970;2023-05-16T09:19:12;62092.69;;;-147.04;50.31
39075;BME280;24826;52.070;20.970;2023-05-16T09:21:56;62092.69;;;-147.04;50.80
39075;BME280;24826;52.070;20.970;2023-05-16T09:24:42;62110.56;;;-147.04;50.91
39075;BME280;24826;52.070;20.970;2023-05-16T09:27:29;62140.41;;;-147.04;50.85
39075;BME280;24826;52.070;20.970;2023-05-16T09:30:14;62168.25;;;-147.04;58.53
39075;BME280;24826;52.070;20.970;2023-05-16T09:33:02;62156.31;;;-147.04;62.48
39075;BME280;24826;52.070;20.970;2023-05-16T09:35:53;62156.31;;;-147.04;60.30
39075;BME280;24826;52.070;20.970;2023-05-16T09:38:38;62146.38;;;-147.04;58.47
39075;BME280;24826;52.070;20.970;2023-05-16T09:41:22;62148.38;;;-147.04;56.02
39075;BME280;24826;52.070;20.970;2023-05-16T09:44:07;62138.41;;;-147.04;56.30
39075;BME280;24826;52.070;20.970;2023-05-16T09:46:53;62126.50;;;-147.04;53.26
39075;BME280;24826;52.070;20.970;2023-05-16T09:49:38;62062.84;;;-147.04;53.71
39075;BME280;24826;52.070;20.970;2023-05-16T09:52:26;62060.84;;;-147.04;53.99
39075;BME280;24826;52.070;20.970;2023-05-16T09:55:10;62062.84;;;-147.04;53.76
39075;BME280;24826;52.070;20.970;2023-05-16T09:57:55;62027.06;;;-147.04;52.51
39075;BME280;24826;52.070;20.970;2023-05-16T10:00:39;62072.78;;;-147.04;52.41
39075;BME280;24826;52.070;20.970;2023-05-16T10:03:25;62090.69;;;-147.04;52.85
39075;BME280;24826;52.070;20.970;2023-05-16T10:06:10;62100.63;;;-147.04;53.12
39075;BME280;24826;52.070;20.970;2023-05-16T10:08:56;62112.56;;;-147.04;52.99
39075;BME280;24826;52.070;20.970;2023-05-16T10:11:41;62104.63;;;-147.04;53.25
39075;BME280;24826;52.070;20.970;2023-05-16T10:14:26;62096.66;;;-147.04;52.72
39075;BME280;24826;52.070;20.970;2023-05-16T10:17:13;62116.53;;;-147.04;52.98
39075;BME280;24826;52.070;20.970;2023-05-16T10:20:02;62124.50;;;-147.04;52.75
39075;BME280;24826;52.070;20.970;2023-05-16T10:22:50;62134.44;;;-147.04;52.41
39075;BME280;24826;52.070;20.970;2023-05-16T10:25:39;62110.56;;;-147.04;51.43
39075;BME280;24826;52.070;20.970;2023-05-16T10:28:25;62140.41;;;-147.04;50.39
39075;BME280;24826;52.070;20.970;2023-05-16T10:31:10;62088.69;;;-147.04;50.01
39075;BME280;24826;52.070;20.970;2023-05-16T10:33:56;62068.81;;;-147.04;50.14
39075;BME280;24826;52.070;20.970;2023-05-16T10:36:41;62092.69;;;-147.04;50.31
39075;BME280;24826;52.070;20.970;2023-05-16T10:39:26;62070.81;;;-147.04;50.21
39075;BME280;24826;52.070;20.970;2023-05-16T10:42:12;62076.78;;;-147.04;50.07
39075;BME280;24826;52.070;20.970;2023-05-16T10:45:17;62110.56;;;-147.04;49.75
39075;BME280;24826;52.070;20.970;2023-05-16T10:48:04;62076.78;;;-147.04;49.97
39075;BME280;24826;52.070;20.970;2023-05-16T10:50:49;62086.72;;;-147.04;50.02
39075;BME280;24826;52.070;20.970;2023-05-16T10:53:34;62048.94;;;-147.04;50.38
39075;BME280;24826;52.070;20.970;2023-05-16T10:56:24;62056.88;;;-147.04;51.22
39075;BME280;24826;52.070;20.970;2023-05-16T10:59:24;62082.75;;;-147.04;50.62
39075;BME280;24826;52.070;20.970;2023-05-16T11:02:30;62078.75;;;-147.04;50.75
39075;BME280;24826;52.070;20.970;2023-05-16T11:05:18;62104.63;;;-147.04;50.70
39075;BME280;24826;52.070;20.970;2023-05-16T11:08:04;62102.63;;;-147.04;50.86
39075;BME280;24826;52.070;20.970;2023-05-16T11:10:49;62084.72;;;-147.04;51.09
39075;BME280;24826;52.070;20.970;2023-05-16T11:13:33;62096.66;;;-147.04;50.62
39075;BME280;24826;52.070;20.970;2023-05-16T11:16:28;62114.56;;;-147.04;51.02
39075;BME280;24826;52.070;20.970;2023-05-16T11:19:12;62120.53;;;-147.04;51.38
39075;BME280;24826;52.070;20.970;2023-05-16T11:25:08;62148.38;;;-147.04;51.00
39075;BME280;24826;52.070;20.970;2023-05-16T11:27:52;62122.50;;;-147.04;51.14
39075;BME280;24826;52.070;20.970;2023-05-16T11:30:41;62154.34;;;-147.04;50.96
39075;BME280;24826;52.070;20.970;2023-05-16T11:33:26;62102.63;;;-147.04;51.12
39075;BME280;24826;52.070;20.970;2023-05-16T11:36:12;62146.38;;;-147.04;50.96
39075;BME280;24826;52.070;20.970;2023-05-16T11:39:05;62140.41;;;-147.04;51.10
39075;BME280;24826;52.070;20.970;2023-05-16T11:41:50;62116.53;;;-147.04;51.38
39075;BME280;24826;52.070;20.970;2023-05-16T11:44:35;62144.38;;;-147.04;51.10
39075;BME280;24826;52.070;20.970;2023-05-16T11:47:19;62140.41;;;-147.04;51.30
39075;BME280;24826;52.070;20.970;2023-05-16T11:50:18;62148.38;;;-147.04;51.17
39075;BME280;24826;52.070;20.970;2023-05-16T11:53:02;62118.53;;;-147.04;51.22
39075;BME280;24826;52.070;20.970;2023-05-16T11:55:47;62184.16;;;-147.04;51.24
39075;BME280;24826;52.070;20.970;2023-05-16T11:58:35;62164.28;;;-147.04;51.25
39075;BME280;24826;52.070;20.970;2023-05-16T12:01:21;62130.47;;;-147.04;51.38
39075;BME280;24826;52.070;20.970;2023-05-16T12:04:10;62162.28;;;-147.04;51.57
39075;BME280;24826;52.070;20.970;2023-05-16T12:06:59;62138.41;;;-147.04;51.57
39075;BME280;24826;52.070;20.970;2023-05-16T12:09:51;62152.34;;;-147.04;51.63
39075;BME280;24826;52.070;20.970;2023-05-16T12:12:38;62140.41;;;-147.04;51.43
39075;BME280;24826;52.070;20.970;2023-05-16T12:15:23;62164.28;;;-147.04;51.48
39075;BME280;24826;52.070;20.970;2023-05-16T12:18:08;62162.28;;;-147.04;51.48
39075;BME280;24826;52.070;20.970;2023-05-16T12:20:54;62136.44;;;-147.04;51.36
39075;BME280;24826;52.070;20.970;2023-05-16T12:23:40;62158.31;;;-147.04;51.44
39075;BME280;24826;52.070;20.970;2023-05-16T12:26:30;62132.47;;;-147.04;51.54
39075;BME280;24826;52.070;20.970;2023-05-16T12:29:15;62178.19;;;-147.04;51.60
39075;BME280;24826;52.070;20.970;2023-05-16T12:32:00;62112.56;;;-147.04;51.78
39075;BME280;24826;52.070;20.970;2023-05-16T12:34:52;62136.44;;;-147.04;52.09
39075;BME280;24826;52.070;20.970;2023-05-16T12:37:36;62144.38;;;-147.04;51.93
39075;BME280;24826;52.070;20.970;2023-05-16T12:40:21;62154.34;;;-147.04;51.95
39075;BME280;24826;52.070;20.970;2023-05-16T12:43:18;62196.09;;;-147.04;51.96
39075;BME280;24826;52.070;20.970;2023-05-16T12:46:09;62116.53;;;-147.04;51.50
39075;BME280;24826;52.070;20.970;2023-05-16T12:49:01;62156.31;;;-147.04;51.14
39075;BME280;24826;52.070;20.970;2023-05-16T12:51:53;62156.31;;;-147.04;50.81
39075;BME280;24826;52.070;20.970;2023-05-16T12:54:38;62158.31;;;-147.04;50.83
39075;BME280;24826;52.070;20.970;2023-05-16T12:57:23;62156.31;;;-147.04;50.93
39075;BME280;24826;52.070;20.970;2023-05-16T13:00:07;62168.25;;;-147.04;50.94
39075;BME280;24826;52.070;20.970;2023-05-16T13:02:52;62126.50;;;-147.04;50.98
39075;BME280;24826;52.070;20.970;2023-05-16T13:05:37;62150.34;;;-147.04;50.55
39075;BME280;24826;52.070;20.970;2023-05-16T13:08:21;62158.31;;;-147.04;50.64
39075;BME280;24826;52.070;20.970;2023-05-16T13:11:06;62186.16;;;-147.04;50.63
39075;BME280;24826;52.070;20.970;2023-05-16T13:13:51;62152.34;;;-147.04;50.65
39075;BME280;24826;52.070;20.970;2023-05-16T13:16:35;62210.03;;;-147.04;50.50
39075;BME280;24826;52.070;20.970;2023-05-16T13:19:20;62164.28;;;-147.04;50.75
39075;BME280;24826;52.070;20.970;2023-05-16T13:22:07;62174.22;;;-147.04;50.53
39075;BME280;24826;52.070;20.970;2023-05-16T13:24:51;62110.56;;;-147.04;50.26
39075;BME280;24826;52.070;20.970;2023-05-16T13:27:36;62170.25;;;-147.04;50.46
39075;BME280;24826;52.070;20.970;2023-05-16T13:30:21;62160.31;;;-147.04;50.49
39075;BME280;24826;52.070;20.970;2023-05-16T13:33:05;62126.50;;;-147.04;50.27
39075;BME280;24826;52.070;20.970;2023-05-16T13:35:50;62200.06;;;-147.04;50.02
39075;BME280;24826;52.070;20.970;2023-05-16T13:38:35;62148.38;;;-147.04;50.27
39075;BME280;24826;52.070;20.970;2023-05-16T13:41:19;62196.09;;;-147.04;50.28
39075;BME280;24826;52.070;20.970;2023-05-16T13:44:04;62188.13;;;-147.04;49.91
39075;BME280;24826;52.070;20.970;2023-05-16T13:46:48;62158.31;;;-147.04;50.09
39075;BME280;24826;52.070;20.970;2023-05-16T13:49:32;62156.31;;;-147.04;50.04
39075;BME280;24826;52.070;20.970;2023-05-16T13:52:17;62172.22;;;-147.04;50.09
39075;BME280;24826;52.070;20.970;2023-05-16T13:55:01;62140.41;;;-147.04;50.16
39075;BME280;24826;52.070;20.970;2023-05-16T13:57:46;62154.34;;;-147.04;50.15
39075;BME280;24826;52.070;20.970;2023-05-16T14:00:31;62152.34;;;-147.04;50.14
39075;BME280;24826;52.070;20.970;2023-05-16T14:03:15;62152.34;;;-147.04;50.12
39075;BME280;24826;52.070;20.970;2023-05-16T14:06:00;62096.66;;;-147.04;50.24
39075;BME280;24826;52.070;20.970;2023-05-16T14:08:44;62148.38;;;-147.04;50.16
39075;BME280;24826;52.070;20.970;2023-05-16T14:11:29;62150.34;;;-147.04;50.17
39075;BME280;24826;52.070;20.970;2023-05-16T14:14:13;62182.19;;;-147.04;50.15
39075;BME280;24826;52.070;20.970;2023-05-16T14:16:58;62144.38;;;-147.04;50.04